TimePST,TemperatureF,Dew PointF,Humidity,Sea Level PressureIn,VisibilityMPH,Wind Direction,Wind SpeedMPH,Gust SpeedMPH,PrecipitationIn,Events,Conditions,WindDirDegrees,DateUTC
12:53 AM,46.9,37.0,68,29.39,10.0,WSW,6.9,-,N/A,,Scattered Clouds,240,2013-11-16 08:53:00
1:53 AM,46.9,37.0,68,29.41,10.0,Variable,6.9,18.4,N/A,,Mostly Cloudy,0,2013-11-16 09:53:00
2:53 AM,46.9,36.0,66,29.43,10.0,SW,5.8,-,N/A,,Scattered Clouds,230,2013-11-16 10:53:00
3:53 AM,45.0,35.1,68,29.45,10.0,SW,5.8,-,N/A,,Scattered Clouds,230,2013-11-16 11:53:00
4:53 AM,43.0,35.1,74,29.49,10.0,SSW,5.8,-,N/A,,Scattered Clouds,200,2013-11-16 12:53:00
5:53 AM,44.1,35.1,71,29.50,10.0,SSW,5.8,-,N/A,,Scattered Clouds,200,2013-11-16 13:53:00
6:53 AM,42.1,35.1,76,29.52,10.0,SSE,5.8,-,N/A,,Mostly Cloudy,160,2013-11-16 14:53:00
7:53 AM,42.1,34.0,73,29.55,10.0,SE,6.9,-,N/A,,Scattered Clouds,140,2013-11-16 15:53:00
8:53 AM,45.0,36.0,71,29.57,10.0,SSE,8.1,-,N/A,,Partly Cloudy,160,2013-11-16 16:53:00
9:53 AM,46.9,36.0,66,29.58,10.0,South,9.2,-,N/A,,Mostly Cloudy,180,2013-11-16 17:53:00
10:53 AM,48.9,37.9,66,29.60,10.0,SSW,11.5,-,N/A,,Mostly Cloudy,200,2013-11-16 18:53:00
11:53 AM,48.9,36.0,61,29.60,10.0,SW,12.7,18.4,N/A,,Mostly Cloudy,220,2013-11-16 19:53:00
12:53 PM,48.9,36.0,61,29.61,10.0,SW,10.4,-,N/A,,Mostly Cloudy,220,2013-11-16 20:53:00
1:53 PM,50.0,35.1,57,29.62,10.0,SW,15.0,21.9,N/A,,Mostly Cloudy,220,2013-11-16 21:53:00
2:53 PM,50.0,34.0,54,29.63,10.0,SW,15.0,24.2,N/A,,Overcast,220,2013-11-16 22:53:00
3:53 PM,48.0,35.1,61,29.65,10.0,SW,13.8,23.0,N/A,,Overcast,220,2013-11-16 23:53:00
4:53 PM,48.0,36.0,63,29.66,10.0,SSW,20.7,27.6,N/A,,Mostly Cloudy,210,2013-11-17 00:53:00
5:53 PM,48.0,34.0,58,29.68,10.0,SW,11.5,20.7,N/A,,Overcast,220,2013-11-17 01:53:00
6:53 PM,48.0,35.1,61,29.71,10.0,WSW,11.5,20.7,N/A,,Overcast,240,2013-11-17 02:53:00
7:53 PM,46.9,35.1,63,29.73,10.0,SW,10.4,-,N/A,,Mostly Cloudy,220,2013-11-17 03:53:00
8:53 PM,46.9,36.0,66,29.75,10.0,SSW,12.7,-,N/A,,Mostly Cloudy,210,2013-11-17 04:53:00
9:53 PM,46.9,36.0,66,29.77,10.0,SSW,11.5,-,N/A,,Mostly Cloudy,200,2013-11-17 05:53:00
10:53 PM,46.9,36.0,66,29.78,10.0,South,9.2,17.3,N/A,,Overcast,170,2013-11-17 06:53:00
11:53 PM,46.0,37.0,71,29.79,10.0,South,12.7,23.0,N/A,,Overcast,180,2013-11-17 07:53:00